Messwerte Larisa

Temperatur

Temperatur
°C
1593838800 8.00 8.00 25
1593842400 9.00 9.00 28
1593846000 10.00 10.00 30
1593849600 11.00 11.00 31
1593853200 12.00 12.00 33
1593856800 13.00 13.00 34
1593860400 14.00 14.00 35
1593864000 15.00 15.00 36
1593867600 16.00 16.00 36
1593871200 17.00 17.00 33
1593874800 18.00 18.00 25
1593878400 19.00 19.00 29
1593882000 20.00 20.00 30
1593885600 21.00 21.00 27
1593889200 22.00 22.00 27
1593892800 23.00 23.00 26
1593896400 0.00 0.00 25
1593900000 1.00 1.00 25
1593903600 2.00 2.00
1593907200 3.00 3.00 24
1593910800 4.00 4.00 26
1593914400 5.00 5.00
1593918000 6.00 6.00 26
1593921600 7.00 7.00 22

Aktuellste Messwerte

Wettercharakter
Wetter: freundlich
Temperatur
24 °C
Feuchtigkeit
70 %
Wind
5 km/hWindrichtung: Südost
Luftdruck
1010 hPa
Messzeit: 5. Juli 2020, 8.00Datenquelle: METAR

Weitere Messstationen in der Nähe

Messstation Temperatur Entfernung
Anchialos 24 °C 56 km
Kozani 19 °C 92 km
Thessaloniki 26 °C 109 km
Skiathos - 126 km
Ioannina 19 °C 137 km
Tanagra 27 °C 174 km
Aktion 25 °C 181 km

Wind

Windrichtung Böen Mittelwind
° km/h km/h
1593838800 8.00 7.00 - 8.00 0
1593842400 9.00 8.00 - 9.00 0
1593846000 10.00 9.00 - 10.00 0
1593849600 11.00 10.00 - 11.00 0
1593853200 12.00 11.00 - 12.00 0
1593856800 13.00 12.00 - 13.00 10° 5
1593860400 14.00 13.00 - 14.00 70° 5
1593864000 15.00 14.00 - 15.00 70° 15
1593867600 16.00 15.00 - 16.00 60° 20
1593871200 17.00 16.00 - 17.00 50° 25
1593874800 18.00 17.00 - 18.00 180° 20
1593878400 19.00 18.00 - 19.00 90° 5
1593882000 20.00 19.00 - 20.00 0
1593885600 21.00 20.00 - 21.00 0
1593889200 22.00 21.00 - 22.00 0
1593892800 23.00 22.00 - 23.00 0
1593896400 0.00 23.00 - 0.00 0
1593900000 1.00 0.00 - 1.00 0
1593903600 2.00 1.00 - 2.00
1593907200 3.00 2.00 - 3.00 300° 10
1593910800 4.00 3.00 - 4.00 20° 10
1593914400 5.00 4.00 - 5.00
1593918000 6.00 5.00 - 6.00 310° 15
1593921600 7.00 6.00 - 7.00 0

Ihre Wetterstation

Fehlt Ihre Wetterstation auf unserem Portal?

Schreiben Sie an network@meteonews.ch

Klima

Wann ist es am wärmsten? Wann regnet es am wenigsten? Unsere Klimadaten geben Auskunft.